Terminal Aerodrome Forecast
Issued by NWS Melbourne, FL

Home | Current Version | Previous Version | Text Only | Print | Product List | Glossary On
Versions: 1 2 3 4 5 6 7 8 9 10 11 12 13 14 15 16 17 18 19 20 21 22
000
FTUS42 KMLB 271826 AAA
TAFDAB
TAF AMD
KDAB 271826Z 2718/2818 02012KT P6SM VCSH BKN015 BKN040 OVC150
      TEMPO 2718/2722 SHRA BKN030
     FM280100 VRB02KT P6SM VCSH SCT025 SCT050 BKN080
     FM281400 11006KT P6SM VCSH SCT015 BKN030=

USA.gov is the U.S. government's official web portal to all federal, state and local government web resources and services.